Time;durP1;ratioP1;P1;durP2;ratioP2;P2;SDS_P1;SDS_P2;PMS_P1;PMS_P2;Temp;Humidity;BMP_temperature;BMP_pressure;BME280_temperature;BME280_humidity;BME280_pressure;Samples;Min_cycle;Max_cycle;Signal;HPM_P1;HPM_P2
2023/04/21 00:02:05;;;;;;;6.43;3.97;;;;;;;10.48;nan;10801.63;4973144;28;20181;-67
2023/04/21 00:04:31;;;;;;;5.65;3.50;;;;;;;10.55;nan;7585.16;4973369;28;20161;-69
2023/04/21 00:07:00;;;;;;;6.82;3.63;;;;;;;10.45;nan;5010.53;4973160;28;20173;-66
2023/04/21 00:09:25;;;;;;;6.03;3.38;;;;;;;10.29;nan;512.03;4974049;28;20177;-67
2023/04/21 00:11:51;;;;;;;4.53;3.33;;;;;;;10.24;nan;-3336.56;4977383;28;20559;-70
2023/04/21 00:14:16;;;;;;;6.78;4.15;;;;;;;10.07;nan;-5899.66;4971707;28;20237;-68
2023/04/21 00:16:42;;;;;;;5.80;3.80;;;;;;;10.25;nan;-6539.75;4977083;28;20272;-67
2023/04/21 00:19:07;;;;;;;5.28;3.70;;;;;;;9.83;nan;-10057.53;4977028;28;20224;-67
2023/04/21 00:21:33;;;;;;;5.68;3.88;;;;;;;9.79;nan;-11974.22;4976959;28;20220;-69
2023/04/21 00:23:59;;;;;;;5.88;3.88;;;;;;;9.66;nan;-12611.78;4976786;28;20174;-69
2023/04/21 00:26:24;;;;;;;7.13;4.10;;;;;;;10.03;nan;-13573.50;4976716;28;20184;-67
2023/04/21 00:28:49;;;;;;;5.93;3.97;;;;;;;9.84;nan;-14529.00;4976839;28;20731;-70
2023/04/21 00:31:15;;;;;;;6.57;4.47;;;;;;;9.73;nan;-16122.84;4976508;28;20187;-67
2023/04/21 00:33:41;;;;;;;7.75;4.63;;;;;;;9.46;nan;-17393.84;4976703;28;20177;-67
2023/04/21 00:36:06;;;;;;;7.07;3.95;;;;;;;9.87;nan;-18357.31;4976429;28;20223;-69
2023/04/21 00:38:31;;;;;;;7.63;3.92;;;;;;;9.80;nan;-19312.28;4976524;28;20193;-65
2023/04/21 00:40:57;;;;;;;8.93;4.72;;;;;;;9.82;nan;-20268.50;4976537;28;20669;-70
2023/04/21 00:43:24;;;;;;;7.73;4.33;;;;;;;9.55;nan;-21217.91;4976844;28;20219;-70
2023/04/21 00:45:50;;;;;;;10.73;5.60;;;;;;;9.54;nan;-21536.00;4976607;28;20168;-68
2023/04/21 00:48:16;;;;;;;8.02;4.40;;;;;;;9.29;nan;-22802.75;4976923;28;20224;-68
2023/04/21 00:50:43;;;;;;;8.52;4.72;;;;;;;9.29;nan;-23438.72;4976563;28;20208;-66
2023/04/21 00:53:09;;;;;;;8.73;5.07;;;;;;;9.44;nan;-24078.75;4976815;28;20232;-70
2023/04/21 00:55:35;;;;;;;7.60;4.87;;;;;;;9.36;nan;-24078.50;4976305;28;20177;-66
2023/04/21 00:58:02;;;;;;;8.77;4.93;;;;;;;9.01;nan;-24068.75;4976361;28;20704;-68
2023/04/21 01:00:27;;;;;;;9.13;5.00;;;;;;;8.96;nan;-24067.34;4976007;28;20584;-67
2023/04/21 01:02:53;;;;;;;8.70;5.47;;;;;;;9.36;nan;-24078.38;4976414;28;20173;-69
2023/04/21 01:05:18;;;;;;;10.23;5.97;;;;;;;9.16;nan;-24073.00;4976080;28;20173;-68
2023/04/21 01:07:44;;;;;;;10.50;5.43;;;;;;;9.09;nan;-24070.88;4976135;28;20185;-70
2023/04/21 01:10:10;;;;;;;8.20;5.27;;;;;;;8.59;nan;-24057.00;4980643;28;20178;-65
2023/04/21 01:12:45;;;;;;;9.60;5.33;;;;;;;8.67;nan;-24059.13;4978375;28;20552;-70
2023/04/21 01:15:12;;;;;;;9.33;5.30;;;;;;;8.65;nan;-24058.56;4976368;28;20267;-67
2023/04/21 01:17:39;;;;;;;8.20;5.40;;;;;;;8.93;nan;-24066.50;4976116;28;20188;-68
2023/04/21 01:20:09;;;;;;;9.27;5.33;;;;;;;8.64;nan;-24058.28;4975942;28;20205;-71
2023/04/21 01:22:40;;;;;;;9.83;5.63;;;;;;;8.55;nan;-24055.75;4976197;28;20165;-70
2023/04/21 01:25:07;;;;;;;8.83;5.43;;;;;;;8.84;nan;-24064.09;4976093;28;20778;-70
2023/04/21 01:27:32;;;;;;;9.37;5.60;;;;;;;8.99;nan;-24068.03;4974652;28;20177;-69
2023/04/21 01:29:58;;;;;;;8.73;5.27;;;;;;;8.71;nan;-24060.25;4976004;28;20236;-70
2023/04/21 01:32:26;;;;;;;11.03;6.13;;;;;;;8.83;nan;-24063.81;4975814;28;20586;-67
2023/04/21 01:34:52;;;;;;;10.37;5.60;;;;;;;8.47;nan;-24053.47;4975771;28;20174;-67
2023/04/21 01:37:24;;;;;;;10.90;5.83;;;;;;;8.41;nan;-24052.06;4975822;28;20177;-69
2023/04/21 01:39:53;;;;;;;9.80;5.83;;;;;;;8.46;nan;-24053.19;4975251;28;20193;-70
2023/04/21 01:42:23;;;;;;;10.73;6.00;;;;;;;8.76;nan;-24061.81;4975325;28;20606;-69
2023/04/21 01:44:48;;;;;;;9.80;5.93;;;;;;;8.68;nan;-24059.56;4975687;28;20180;-70
2023/04/21 01:47:15;;;;;;;7.93;5.00;;;;;;;8.70;nan;-24060.13;4974036;28;20221;-68
2023/04/21 01:49:41;;;;;;;10.20;5.63;;;;;;;8.62;nan;-24057.88;4975518;28;20178;-71
2023/04/21 01:52:06;;;;;;;8.97;5.17;;;;;;;8.40;nan;-24051.63;4975686;28;20188;-69
2023/04/21 01:54:32;;;;;;;8.03;4.83;;;;;;;8.28;nan;-24048.22;4975508;28;20208;-69
2023/04/21 01:56:57;;;;;;;9.03;5.30;;;;;;;8.13;nan;-24044.13;4975348;28;20177;-68
2023/04/21 01:59:22;;;;;;;8.53;5.10;;;;;;;8.54;nan;-24055.59;4975195;28;20205;-67
2023/04/21 02:01:48;;;;;;;9.27;5.50;;;;;;;8.22;nan;-24046.53;4974185;28;20268;-68
2023/04/21 02:04:14;;;;;;;8.77;5.17;;;;;;;8.15;nan;-24044.56;4975244;28;20174;-68
2023/04/21 02:06:40;;;;;;;8.80;4.73;;;;;;;8.20;nan;-24045.97;4974821;28;20549;-68
2023/04/21 02:09:05;;;;;;;10.60;5.20;;;;;;;8.22;nan;-24046.53;4974802;28;20177;-70
2023/04/21 02:11:31;;;;;;;7.23;4.97;;;;;;;7.83;nan;-24035.63;4981905;28;20259;-68
2023/04/21 02:13:56;;;;;;;8.40;4.60;;;;;;;7.74;nan;-24033.22;4975590;28;20264;-68
2023/04/21 02:16:25;;;;;;;10.07;5.07;;;;;;;7.85;nan;-24036.19;4975342;28;20170;-67
2023/04/21 02:18:52;;;;;;;8.47;5.00;;;;;;;8.06;nan;-24042.16;4974883;28;20197;-66
2023/04/21 02:21:18;;;;;;;7.47;4.30;;;;;;;7.71;nan;-24032.38;4973540;28;20188;-69
2023/04/21 02:23:43;;;;;;;8.10;4.57;;;;;;;7.92;nan;-24038.31;4973901;28;20181;-69
2023/04/21 02:26:09;;;;;;;7.17;4.27;;;;;;;7.62;nan;-24029.69;4974496;28;20180;-69
2023/04/21 02:28:34;;;;;;;12.33;4.63;;;;;;;8.04;nan;-24041.44;4974480;28;20170;-70
2023/04/21 02:31:00;;;;;;;10.90;4.70;;;;;;;7.61;nan;-24029.53;4974245;28;20558;-70
2023/04/21 02:33:25;;;;;;;7.70;4.27;;;;;;;7.53;nan;-24027.28;4974430;28;20177;-69
2023/04/21 02:35:50;;;;;;;6.87;4.23;;;;;;;7.97;nan;-24039.59;4974360;28;20178;-68
2023/04/21 02:38:16;;;;;;;6.70;4.30;;;;;;;7.68;nan;-24031.53;4973770;28;20264;-70
2023/04/21 02:40:41;;;;;;;6.80;4.63;;;;;;;8.03;nan;-24041.16;4974505;28;20580;-69
2023/04/21 02:43:07;;;;;;;7.13;4.30;;;;;;;7.60;nan;-24029.25;4974571;28;20196;-70
2023/04/21 02:45:32;;;;;;;10.10;4.80;;;;;;;8.03;nan;-24041.28;4974187;28;20184;-70
2023/04/21 02:47:58;;;;;;;8.50;4.33;;;;;;;7.89;nan;-24037.47;4974097;28;20229;-70
2023/04/21 02:50:24;;;;;;;14.60;4.73;;;;;;;7.77;nan;-24034.06;4974004;28;20205;-65
2023/04/21 02:52:49;;;;;;;6.67;3.90;;;;;;;8.08;nan;-24042.56;4973786;28;20552;-67
2023/04/21 02:55:14;;;;;;;10.63;4.77;;;;;;;7.96;nan;-24039.44;4973881;28;20216;-68
2023/04/21 02:57:40;;;;;;;9.03;4.70;;;;;;;7.60;nan;-24029.09;4972620;28;20178;-69
2023/04/21 03:00:06;;;;;;;6.47;4.50;;;;;;;7.98;nan;-24040.03;4974006;28;20205;-69
2023/04/21 03:02:31;;;;;;;6.77;4.00;;;;;;;7.83;nan;-24035.78;4974181;28;20645;-68
2023/04/21 03:04:57;;;;;;;6.40;4.70;;;;;;;7.86;nan;-24036.63;4974026;28;20189;-70
2023/04/21 03:07:22;;;;;;;8.63;5.07;;;;;;;7.64;nan;-24030.25;4973646;28;20174;-67
2023/04/21 03:09:48;;;;;;;8.33;5.13;;;;;;;7.60;nan;-24029.09;4983403;28;20741;-70
2023/04/21 03:12:13;;;;;;;8.63;4.87;;;;;;;7.64;nan;-24030.25;4983320;28;20181;-67
2023/04/21 03:14:39;;;;;;;9.80;5.50;;;;;;;7.90;nan;-24037.75;4993713;28;20740;-71
2023/04/21 03:17:04;;;;;;;8.90;5.30;;;;;;;7.74;nan;-24033.06;4993401;28;20185;-71
2023/04/21 03:19:30;;;;;;;6.17;3.87;;;;;;;7.73;nan;-24032.78;4991907;28;20598;-72
2023/04/21 03:21:55;;;;;;;7.40;4.57;;;;;;;7.35;nan;-24022.31;4992611;28;20180;-70
2023/04/21 03:24:20;;;;;;;8.43;5.33;;;;;;;7.55;nan;-24027.97;4993658;28;20169;-69
2023/04/21 03:26:46;;;;;;;9.67;5.33;;;;;;;7.58;nan;-24028.69;4993105;28;20550;-67
2023/04/21 03:29:11;;;;;;;7.80;4.90;;;;;;;7.14;nan;-24016.22;4993261;28;20204;-68
2023/04/21 03:31:37;;;;;;;7.50;4.73;;;;;;;7.17;nan;-24017.06;4992842;28;20179;-70
2023/04/21 03:34:02;;;;;;;9.97;4.73;;;;;;;7.44;nan;-24024.72;4992940;28;20172;-65
2023/04/21 03:36:27;;;;;;;6.67;4.43;;;;;;;7.13;nan;-24015.94;4993185;28;20643;-67
2023/04/21 03:38:53;;;;;;;10.63;5.83;;;;;;;7.24;nan;-24019.19;4993357;28;20203;-70
2023/04/21 03:41:18;;;;;;;7.97;5.10;;;;;;;7.25;nan;-24019.34;4992753;28;20181;-67
2023/04/21 03:43:43;;;;;;;9.10;5.13;;;;;;;7.94;nan;-24038.88;4992935;28;20654;-66
2023/04/21 03:46:19;;;;;;;10.07;5.27;;;;;;;8.23;nan;-24046.81;4992798;28;20173;-69
2023/04/21 03:48:45;;;;;;;10.03;5.37;;;;;;;8.33;nan;-24049.66;4992557;28;20216;-70
2023/04/21 03:51:11;;;;;;;11.10;6.47;;;;;;;8.95;nan;-24066.91;5006917;28;20213;-67
2023/04/21 03:53:36;;;;;;;9.60;5.77;;;;;;;9.56;nan;-24084.16;4993422;28;20300;-69
2023/04/21 03:56:02;;;;;;;9.77;5.73;;;;;;;10.39;nan;-21874.97;4992891;28;20184;-68
2023/04/21 03:58:27;;;;;;;8.87;5.07;;;;;;;11.00;nan;-16141.94;4992630;28;20802;-68
2023/04/21 04:00:52;;;;;;;7.47;4.93;;;;;;;11.62;nan;-10387.19;4992688;28;20175;-68
2023/04/21 04:03:18;;;;;;;5.88;4.32;;;;;;;12.12;nan;-109.44;4991415;28;20644;-71
2023/04/21 04:05:43;;;;;;;7.00;4.47;;;;;;;12.70;nan;12805.41;4992303;28;20177;-69
2023/04/21 04:08:08;;;;;;;7.28;4.43;;;;;;;13.21;nan;25466.81;4992670;28;20176;-69
2023/04/21 04:10:34;;;;;;;8.23;4.85;;;;;;;13.58;nan;41240.22;4992306;28;20197;-67
2023/04/21 04:13:00;;;;;;;8.23;4.32;;;;;;;13.88;nan;51574.38;4999422;28;20235;-67
2023/04/21 04:15:26;;;;;;;8.10;5.25;;;;;;;13.73;nan;55048.16;4986386;28;20279;-68
2023/04/21 04:17:51;;;;;;;6.75;4.65;;;;;;;13.83;nan;55540.28;4975431;28;20173;-71
2023/04/21 04:20:16;;;;;;;6.65;4.53;;;;;;;12.68;nan;51316.53;4990570;28;20208;-68
2023/04/21 04:22:42;;;;;;;8.02;5.13;;;;;;;12.54;nan;41685.47;4991967;28;20184;-68
2023/04/21 04:25:08;;;;;;;7.60;4.60;;;;;;;12.76;nan;28690.66;4991505;28;20706;-69
2023/04/21 04:27:34;;;;;;;8.00;4.90;;;;;;;12.68;nan;19601.91;4991687;28;20191;-66
2023/04/21 04:29:59;;;;;;;9.50;5.30;;;;;;;12.92;nan;20584.72;4991111;28;20169;-67
2023/04/21 04:32:27;;;;;;;7.22;4.75;;;;;;;12.75;nan;17985.19;4992266;28;20177;-69
2023/04/21 04:34:54;;;;;;;9.32;5.10;;;;;;;12.87;nan;15723.13;4992074;28;20177;-68
2023/04/21 04:37:20;;;;;;;8.80;5.10;;;;;;;12.26;nan;12145.09;4992209;28;20292;-68
2023/04/21 04:39:46;;;;;;;8.40;5.15;;;;;;;12.34;nan;8595.66;4992051;28;20262;-70
2023/04/21 04:42:12;;;;;;;8.73;4.93;;;;;;;12.23;nan;6012.28;4992068;28;20267;-67
2023/04/21 04:44:37;;;;;;;9.40;5.28;;;;;;;12.37;nan;2791.78;4992017;28;20180;-70
2023/04/21 04:47:03;;;;;;;7.53;4.72;;;;;;;12.21;nan;-430.25;4991986;28;20225;-72
2023/04/21 04:49:28;;;;;;;7.00;5.03;;;;;;;12.09;nan;-3325.78;4991961;28;20307;-71
2023/04/21 04:51:54;;;;;;;7.53;4.88;;;;;;;11.89;nan;-4612.00;4991933;28;20173;-70
2023/04/21 04:54:19;;;;;;;8.07;5.20;;;;;;;12.06;nan;-7501.78;4991133;28;20173;-70
2023/04/21 04:56:45;;;;;;;7.95;5.38;;;;;;;11.91;nan;-7501.66;4970868;28;20268;-70
2023/04/21 04:59:11;;;;;;;9.43;5.40;;;;;;;12.22;nan;-7501.94;4971762;28;20296;-71
2023/04/21 05:01:37;;;;;;;9.45;5.78;;;;;;;12.03;nan;-7180.75;4974159;28;20168;-71
2023/04/21 05:04:03;;;;;;;11.27;5.78;;;;;;;12.44;nan;-4288.44;4975615;28;20707;-71
2023/04/21 05:06:28;;;;;;;10.88;5.95;;;;;;;12.63;nan;-4287.56;4975993;28;20165;-70
2023/04/21 05:08:54;;;;;;;10.90;6.00;;;;;;;12.55;nan;-3001.34;4975564;28;20664;-70
2023/04/21 05:11:20;;;;;;;8.57;5.35;;;;;;;12.76;nan;-424.31;4978721;28;20176;-71
2023/04/21 05:13:46;;;;;;;8.95;5.18;;;;;;;12.75;nan;-424.47;4979794;28;20177;-72
2023/04/21 05:16:11;;;;;;;8.93;5.05;;;;;;;12.28;nan;1824.06;4975550;28;20200;-71
2023/04/21 05:18:37;;;;;;;9.23;4.97;;;;;;;12.76;nan;6023.59;4975332;28;20304;-73
2023/04/21 05:21:02;;;;;;;8.88;5.40;;;;;;;12.72;nan;5699.97;4975850;28;20637;-71
2023/04/21 05:23:27;;;;;;;7.43;4.97;;;;;;;12.80;nan;7315.63;4975635;28;20181;-70
2023/04/21 05:25:53;;;;;;;7.78;4.72;;;;;;;13.31;nan;8943.44;4975211;28;20208;-69
2023/04/21 05:28:18;;;;;;;8.48;4.82;;;;;;;13.40;nan;9592.41;4975746;28;20188;-72
2023/04/21 05:30:43;;;;;;;8.45;5.00;;;;;;;13.09;nan;12170.91;4975533;28;20682;-70
2023/04/21 05:33:09;;;;;;;7.53;4.60;;;;;;;13.67;nan;17373.78;4974965;28;20181;-70
2023/04/21 05:35:34;;;;;;;7.53;4.82;;;;;;;13.47;nan;16069.25;4975220;28;20169;-72
2023/04/21 05:38:00;;;;;;;7.63;4.70;;;;;;;13.93;nan;16735.41;4975306;28;20184;-70
2023/04/21 05:40:25;;;;;;;9.07;5.40;;;;;;;14.29;nan;15126.69;4974944;28;20205;-71
2023/04/21 05:42:51;;;;;;;7.90;4.85;;;;;;;14.41;nan;25855.81;4975374;28;20176;-71
2023/04/21 05:45:16;;;;;;;8.88;4.47;;;;;;;14.35;nan;29109.00;4975262;28;20169;-72
2023/04/21 05:47:44;;;;;;;7.38;4.65;;;;;;;14.31;nan;37587.66;4974452;28;20228;-71
2023/04/21 05:50:10;;;;;;;8.43;5.25;;;;;;;14.61;nan;35975.97;4975223;28;20637;-72
2023/04/21 05:52:36;;;;;;;7.93;4.80;;;;;;;14.34;nan;42743.69;4975040;28;20181;-71
2023/04/21 05:55:02;;;;;;;6.80;4.05;;;;;;;14.87;nan;46467.16;4974896;28;20174;-73
2023/04/21 05:57:27;;;;;;;6.75;4.20;;;;;;;14.65;nan;48754.88;4974691;28;20217;-71
2023/04/21 05:59:52;;;;;;;6.45;4.65;;;;;;;14.76;nan;48936.22;4973549;28;20204;-72
2023/04/21 06:02:18;;;;;;;6.53;4.10;;;;;;;14.83;nan;50709.13;4974784;28;20608;-70
2023/04/21 06:04:43;;;;;;;5.75;4.25;;;;;;;14.97;nan;51735.09;4974579;28;20170;-71
2023/04/21 06:07:12;;;;;;;6.05;3.83;;;;;;;15.22;nan;54529.41;4974534;28;20184;-71
2023/04/21 06:09:40;;;;;;;8.25;4.38;;;;;;;15.04;nan;57208.59;4974513;28;20249;-72
2023/04/21 06:12:06;;;;;;;6.95;3.85;;;;;;;15.32;nan;58245.69;4982275;28;20256;-72
2023/04/21 06:14:31;;;;;;;5.75;3.70;;;;;;;15.26;nan;58940.72;4975118;28;20220;-70
2023/04/21 06:16:57;;;;;;;6.75;3.70;;;;;;;15.18;nan;59614.00;4974737;28;20163;-72
2023/04/21 06:19:22;;;;;;;4.60;3.53;;;;;;;15.53;nan;59461.66;4974973;28;20700;-61
2023/04/21 06:21:48;;;;;;;6.30;3.72;;;;;;;15.68;nan;59781.31;4974905;28;20567;-60
2023/04/21 06:24:13;;;;;;;9.05;4.07;;;;;;;15.78;nan;59856.75;4975005;28;20208;-60
2023/04/21 06:26:38;;;;;;;8.30;4.03;;;;;;;16.10;nan;59214.19;4974413;28;20260;-61
2023/04/21 06:29:04;;;;;;;10.55;4.35;;;;;;;15.79;nan;60368.25;4975081;28;20247;-59
2023/04/21 06:31:29;;;;;;;5.90;3.67;;;;;;;15.87;nan;60410.06;4974210;28;20169;-60
2023/04/21 06:33:55;;;;;;;5.32;3.75;;;;;;;15.96;nan;60474.19;4974849;28;20179;-59
2023/04/21 06:36:21;;;;;;;6.57;4.25;;;;;;;15.86;nan;60592.38;4974727;28;20652;-59
2023/04/21 06:38:47;;;;;;;5.53;3.95;;;;;;;15.74;nan;60594.41;4974540;28;20728;-59
2023/04/21 06:41:13;;;;;;;6.47;3.58;;;;;;;15.83;nan;60650.28;4974332;28;20213;-60
2023/04/21 06:43:38;;;;;;;7.30;4.03;;;;;;;15.65;nan;60715.66;4974085;28;20212;-61
2023/04/21 06:46:04;;;;;;;6.63;4.15;;;;;;;16.02;nan;60730.81;4974109;28;20170;-60
2023/04/21 06:48:29;;;;;;;7.03;4.10;;;;;;;16.32;nan;60756.16;4973951;28;20252;-60
2023/04/21 06:50:55;;;;;;;6.95;4.20;;;;;;;16.06;nan;60819.75;4974363;28;20176;-60
2023/04/21 06:53:20;;;;;;;6.50;4.28;;;;;;;16.20;nan;60871.53;4974139;28;20182;-61
2023/04/21 06:55:47;;;;;;;5.70;3.90;;;;;;;16.71;nan;61073.28;4973730;28;20172;-60
2023/04/21 06:58:13;;;;;;;6.40;3.90;;;;;;;16.38;nan;60956.19;4974275;28;20264;-61
2023/04/21 07:00:38;;;;;;;6.35;4.00;;;;;;;16.66;nan;60974.81;4973662;28;20296;-60
2023/04/21 07:03:03;;;;;;;6.40;4.07;;;;;;;16.34;nan;60972.31;4973730;28;20170;-61
2023/04/21 07:05:29;;;;;;;8.25;3.65;;;;;;;16.45;nan;61028.53;4973594;28;20197;-59
2023/04/21 07:07:58;;;;;;;6.93;4.15;;;;;;;16.55;nan;61047.53;4973854;28;20177;-59
2023/04/21 07:10:25;;;;;;;7.13;3.67;;;;;;;16.43;nan;61008.22;4973757;28;20185;-60
2023/04/21 07:12:50;;;;;;;6.53;4.18;;;;;;;16.91;nan;61061.72;4974019;28;20232;-60
2023/04/21 07:15:16;;;;;;;6.57;4.07;;;;;;;17.06;nan;61091.50;4974429;28;20169;-60
2023/04/21 07:17:41;;;;;;;7.03;4.55;;;;;;;17.11;nan;61133.25;4973832;28;20188;-60
2023/04/21 07:20:07;;;;;;;6.60;4.03;;;;;;;17.26;nan;61273.53;4973824;28;20240;-60
2023/04/21 07:22:34;;;;;;;7.60;3.90;;;;;;;17.13;nan;61212.38;4974042;28;20193;-60
2023/04/21 07:25:01;;;;;;;6.65;3.97;;;;;;;17.53;nan;61198.09;4972960;28;20661;-60
2023/04/21 07:27:26;;;;;;;9.30;3.50;;;;;;;17.15;nan;61184.25;4973495;28;20185;-60
2023/04/21 07:29:52;;;;;;;5.80;4.05;;;;;;;17.41;nan;61189.75;4973522;28;20188;-59
2023/04/21 07:32:17;;;;;;;8.73;4.20;;;;;;;17.26;nan;61177.44;4973696;28;20260;-59
2023/04/21 07:34:45;;;;;;;5.85;3.70;;;;;;;17.45;nan;61253.66;4973465;28;20641;-60
2023/04/21 07:37:11;;;;;;;6.82;4.82;;;;;;;17.39;nan;61164.25;4973208;28;20641;-61
2023/04/21 07:39:36;;;;;;;7.43;4.75;;;;;;;17.10;nan;61152.22;4973157;28;20200;-59
2023/04/21 07:42:02;;;;;;;8.55;4.32;;;;;;;17.34;nan;61179.25;4973410;28;20180;-59
2023/04/21 07:44:28;;;;;;;7.07;4.70;;;;;;;17.60;nan;61218.38;4972861;28;20175;-59
2023/04/21 07:46:53;;;;;;;6.72;4.25;;;;;;;17.97;nan;61218.78;4973266;28;20177;-60
2023/04/21 07:49:19;;;;;;;8.32;4.47;;;;;;;17.99;nan;61303.16;4973037;28;20265;-60
2023/04/21 07:51:44;;;;;;;6.65;4.13;;;;;;;17.79;nan;61254.75;4973491;28;20177;-60
2023/04/21 07:54:10;;;;;;;7.70;4.80;;;;;;;17.79;nan;61291.50;4973005;28;20236;-62
2023/04/21 07:56:35;;;;;;;6.80;4.57;;;;;;;18.02;nan;61280.72;4973117;28;20166;-60
2023/04/21 07:59:01;;;;;;;6.57;4.18;;;;;;;17.72;nan;61280.44;4972772;28;20192;-60
2023/04/21 08:01:26;;;;;;;5.93;4.03;;;;;;;17.86;nan;61335.00;4973058;28;20621;-60
2023/04/21 08:03:51;;;;;;;8.32;4.57;;;;;;;18.09;nan;61361.00;4973016;28;20181;-59
2023/04/21 08:06:17;;;;;;;6.78;4.38;;;;;;;18.12;nan;61359.22;4981575;28;20717;-60
2023/04/21 08:08:42;;;;;;;6.10;3.65;;;;;;;18.08;nan;61355.25;4975420;28;20188;-60
2023/04/21 08:11:08;;;;;;;9.20;4.32;;;;;;;18.36;nan;61362.47;4973051;28;20196;-61
2023/04/21 08:13:34;;;;;;;6.75;4.22;;;;;;;18.65;nan;61454.25;4977649;28;20669;-62
2023/04/21 08:16:00;;;;;;;6.22;4.15;;;;;;;18.80;nan;61453.09;4992837;28;20667;-60
2023/04/21 08:18:25;;;;;;;6.85;4.38;;;;;;;18.74;nan;61480.50;4992398;28;20204;-61
2023/04/21 08:20:51;;;;;;;5.35;3.75;;;;;;;18.42;nan;61449.47;4992679;28;20322;-61
2023/04/21 08:23:16;;;;;;;5.38;3.55;;;;;;;18.41;nan;61485.09;4992578;28;20172;-60
2023/04/21 08:25:42;;;;;;;5.60;3.55;;;;;;;18.41;nan;61510.97;4992435;28;20540;-59
2023/04/21 08:28:07;;;;;;;6.88;4.32;;;;;;;18.32;nan;61505.97;4992097;28;20173;-58
2023/04/21 08:30:33;;;;;;;5.15;3.60;;;;;;;18.86;nan;61550.50;4992326;28;20259;-60
2023/04/21 08:32:58;;;;;;;8.05;4.03;;;;;;;18.61;nan;61517.56;4992588;28;20180;-59
2023/04/21 08:35:24;;;;;;;9.73;4.18;;;;;;;18.66;nan;61548.53;4992988;28;20175;-60
2023/04/21 08:37:49;;;;;;;4.63;3.25;;;;;;;18.82;nan;61551.13;4994839;28;20180;-61
2023/04/21 08:40:15;;;;;;;5.22;3.67;;;;;;;19.10;nan;61566.75;4996187;28;20286;-59
2023/04/21 08:42:41;;;;;;;6.25;3.75;;;;;;;18.93;nan;61553.81;4995983;28;20184;-61
2023/04/21 08:45:07;;;;;;;5.88;3.60;;;;;;;18.76;nan;61559.88;4995928;28;20225;-62
2023/04/21 08:47:33;;;;;;;5.47;3.88;;;;;;;18.85;nan;61663.25;4996244;28;20687;-61
2023/04/21 08:49:59;;;;;;;5.93;3.65;;;;;;;19.01;nan;61577.81;4995696;28;20614;-61
2023/04/21 08:52:24;;;;;;;5.30;3.47;;;;;;;18.94;nan;61614.50;4996152;28;20180;-60
2023/04/21 08:54:52;;;;;;;4.70;3.35;;;;;;;18.91;nan;61589.81;4995889;28;20172;-61
2023/04/21 08:57:18;;;;;;;5.63;3.92;;;;;;;18.94;nan;61621.69;4995858;28;20575;-60
2023/04/21 08:59:44;;;;;;;5.93;4.03;;;;;;;19.45;nan;61657.69;4996103;28;20696;-60
2023/04/21 09:02:17;;;;;;;7.05;3.58;;;;;;;19.50;nan;61686.69;4995831;28;20212;-61
2023/04/21 09:04:54;;;;;;;5.15;3.50;;;;;;;19.49;nan;61688.13;4996055;28;20168;-59
2023/04/21 09:07:29;;;;;;;4.60;3.40;;;;;;;19.14;nan;61625.66;4995765;28;20187;-61
2023/04/21 09:09:56;;;;;;;6.45;3.42;;;;;;;19.72;nan;61703.84;4995163;28;20252;-60
2023/04/21 09:12:23;;;;;;;6.20;3.72;;;;;;;19.57;nan;61692.00;4994249;28;20235;-60
2023/04/21 09:14:49;;;;;;;6.07;3.78;;;;;;;20.12;nan;61733.69;5010013;28;20656;-60
2023/04/21 09:17:16;;;;;;;4.70;3.38;;;;;;;20.23;nan;61750.78;4995201;28;20227;-59
2023/04/21 09:19:42;;;;;;;5.13;3.38;;;;;;;20.10;nan;61765.16;4995421;28;20510;-60
2023/04/21 09:22:07;;;;;;;6.82;3.55;;;;;;;20.34;nan;62017.06;4995432;28;20659;-61
2023/04/21 09:24:33;;;;;;;6.45;3.40;;;;;;;20.23;nan;61766.94;4995134;28;20211;-61
2023/04/21 09:27:02;;;;;;;5.50;3.28;;;;;;;20.19;nan;61782.59;4994668;28;20267;-60
2023/04/21 09:29:28;;;;;;;5.03;3.25;;;;;;;20.45;nan;61736.28;4994763;28;20551;-61
2023/04/21 09:31:54;;;;;;;5.20;3.33;;;;;;;20.24;nan;61788.25;4994724;28;20187;-60
2023/04/21 09:34:25;;;;;;;7.13;3.85;;;;;;;20.50;nan;61763.31;4994507;28;20173;-61
2023/04/21 09:37:01;;;;;;;9.15;3.25;;;;;;;20.56;nan;61785.13;4994092;28;20215;-61
2023/04/21 09:39:31;;;;;;;4.25;2.92;;;;;;;20.75;nan;61839.91;4994336;28;20298;-59
2023/04/21 09:41:57;;;;;;;4.90;3.45;;;;;;;20.76;nan;61789.09;4994545;28;20196;-60
2023/04/21 09:44:24;;;;;;;4.68;3.22;;;;;;;20.17;nan;61746.56;4994300;28;20218;-60
2023/04/21 09:46:52;;;;;;;4.57;2.90;;;;;;;20.40;nan;61798.09;4993897;28;20200;-60
2023/04/21 09:49:21;;;;;;;4.95;3.20;;;;;;;20.46;nan;61789.34;4993449;28;20169;-63
2023/04/21 09:51:47;;;;;;;4.28;2.90;;;;;;;20.85;nan;61820.66;4994417;28;20641;-62
2023/04/21 09:54:18;;;;;;;6.22;3.03;;;;;;;21.03;nan;61908.09;4994328;28;20172;-60
2023/04/21 09:56:51;;;;;;;4.50;3.13;;;;;;;21.13;nan;61901.31;4994543;28;20177;-61
2023/04/21 09:59:19;;;;;;;3.63;2.65;;;;;;;21.08;nan;61895.59;4994561;28;20283;-60
2023/04/21 10:01:48;;;;;;;5.40;3.00;;;;;;;21.11;nan;61902.16;4994073;28;20179;-60
2023/04/21 10:04:14;;;;;;;4.60;3.22;;;;;;;21.06;nan;61875.13;4994532;28;20185;-60
2023/04/21 10:06:40;;;;;;;7.10;3.35;;;;;;;21.17;nan;61915.66;4994034;28;20184;-60
2023/04/21 10:09:08;;;;;;;4.18;2.65;;;;;;;21.19;nan;61931.50;4994124;28;20185;-60
2023/04/21 10:11:35;;;;;;;7.78;3.20;;;;;;;21.23;nan;61888.69;4993834;28;20629;-60
2023/04/21 10:14:02;;;;;;;3.95;2.95;;;;;;;21.34;nan;61896.56;4994231;28;20165;-61
2023/04/21 10:16:27;;;;;;;4.45;2.58;;;;;;;21.58;nan;61949.31;4993784;28;20224;-60
2023/04/21 10:18:53;;;;;;;4.38;2.80;;;;;;;21.09;nan;61907.09;4994502;28;20204;-62
2023/04/21 10:21:20;;;;;;;5.13;3.08;;;;;;;21.58;nan;61968.09;4993970;28;20572;-59
2023/04/21 10:23:51;;;;;;;4.68;3.15;;;;;;;22.04;nan;62003.69;4993808;28;20214;-60
2023/04/21 10:26:34;;;;;;;3.05;2.58;;;;;;;21.91;nan;62001.91;4993670;28;20264;-61
2023/04/21 10:29:08;;;;;;;6.53;3.03;;;;;;;22.07;nan;62014.91;4993571;28;20219;-59
2023/04/21 10:31:50;;;;;;;4.05;2.75;;;;;;;22.15;nan;62018.25;4993416;28;20176;-61
2023/04/21 10:34:16;;;;;;;9.88;2.92;;;;;;;21.73;nan;61945.56;4993912;28;20209;-61
2023/04/21 10:37:06;;;;;;;3.30;2.63;;;;;;;21.93;nan;61968.31;4993812;28;20187;-60
2023/04/21 10:39:47;;;;;;;3.75;2.90;;;;;;;22.36;nan;62047.94;4993161;28;20703;-60
2023/04/21 10:42:15;;;;;;;6.88;2.78;;;;;;;22.86;nan;62127.22;4993470;28;20203;-62
2023/04/21 10:44:49;;;;;;;4.75;2.90;;;;;;;22.63;nan;62124.44;4993555;28;20173;-61
2023/04/21 10:47:43;;;;;;;4.13;2.70;;;;;;;22.57;nan;62094.16;4992846;28;20246;-61
2023/04/21 10:50:13;;;;;;;3.53;2.70;;;;;;;22.44;nan;62054.44;4992686;28;20219;-62
2023/04/21 10:52:38;;;;;;;3.65;2.60;;;;;;;22.06;nan;62044.44;4992973;28;20199;-63
2023/04/21 10:55:05;;;;;;;4.97;2.72;;;;;;;21.63;nan;61970.59;4993162;28;20640;-61
2023/04/21 10:57:33;;;;;;;3.80;2.55;;;;;;;21.81;nan;61959.88;4993418;28;20180;-61
2023/04/21 10:59:59;;;;;;;4.00;3.00;;;;;;;22.11;nan;62013.69;4992870;28;20193;-59
2023/04/21 11:02:25;;;;;;;3.80;2.47;;;;;;;22.07;nan;62045.56;4993076;28;20646;-61
2023/04/21 11:04:51;;;;;;;4.18;2.58;;;;;;;21.99;nan;62019.41;4993151;28;20177;-62
2023/04/21 11:07:18;;;;;;;3.30;2.45;;;;;;;21.55;nan;61893.88;4992911;28;20179;-62
2023/04/21 11:09:46;;;;;;;3.08;2.30;;;;;;;20.58;nan;61865.84;4993343;28;20200;-61
2023/04/21 11:12:17;;;;;;;4.18;2.67;;;;;;;20.71;nan;61851.50;4986609;28;20192;-61
2023/04/21 11:14:46;;;;;;;4.57;2.70;;;;;;;20.62;nan;61841.28;4975534;28;20248;-60
2023/04/21 11:17:14;;;;;;;4.47;3.10;;;;;;;20.12;nan;61785.00;4992986;28;20184;-60
2023/04/21 11:19:40;;;;;;;3.63;2.60;;;;;;;20.27;nan;61781.84;4992909;28;20303;-60
2023/04/21 11:22:06;;;;;;;3.65;2.25;;;;;;;20.00;nan;61756.38;4992936;28;20177;-60
2023/04/21 11:24:32;;;;;;;3.22;2.25;;;;;;;20.12;nan;61785.56;4993361;28;20200;-60
2023/04/21 11:27:00;;;;;;;3.95;2.40;;;;;;;20.42;nan;61805.56;4993035;28;20168;-60
2023/04/21 11:29:29;;;;;;;6.20;3.17;;;;;;;20.48;nan;61828.53;4992635;28;20184;-60
2023/04/21 11:31:55;;;;;;;4.05;2.28;;;;;;;20.30;nan;61795.09;4992626;28;20177;-60
2023/04/21 11:34:21;;;;;;;3.05;2.25;;;;;;;20.06;nan;61778.19;4992816;28;20187;-61
2023/04/21 11:36:47;;;;;;;5.63;2.80;;;;;;;20.19;nan;61995.34;4992594;28;20184;-60
2023/04/21 11:39:18;;;;;;;3.30;2.45;;;;;;;19.67;nan;61952.81;4992023;28;20200;-60
2023/04/21 11:41:46;;;;;;;3.38;2.50;;;;;;;19.32;nan;61698.47;4992020;28;20181;-61
2023/04/21 11:44:13;;;;;;;3.60;2.55;;;;;;;19.56;nan;61929.34;4992131;28;20188;-60
2023/04/21 11:46:45;;;;;;;7.32;3.80;;;;;;;19.28;nan;61651.91;4992558;28;20225;-59
2023/04/21 11:49:12;;;;;;;6.88;3.30;;;;;;;19.73;nan;61681.66;4991882;28;20608;-59